createdAt,value
2022-11-19T03:36:47.316Z,11.60
2022-11-19T03:39:39.265Z,13.10
2022-11-19T03:42:28.322Z,13.37
2022-11-19T03:59:19.320Z,14.23
2022-11-19T04:02:10.057Z,13.40
2022-11-19T04:04:57.817Z,13.80
2022-11-19T04:07:45.600Z,14.00
2022-11-19T04:10:33.667Z,14.50
2022-11-19T04:13:22.629Z,13.43
2022-11-19T04:16:10.479Z,13.97
2022-11-19T04:18:57.964Z,14.00
2022-11-19T04:21:45.675Z,12.23
2022-11-19T04:24:33.592Z,11.17
2022-11-19T04:27:21.320Z,11.90
2022-11-19T04:30:12.217Z,11.93
2022-11-19T04:32:59.874Z,12.70
2022-11-19T04:35:47.757Z,13.10
2022-11-19T04:38:35.664Z,13.10
2022-11-19T04:41:24.371Z,12.77
2022-11-19T04:44:11.929Z,12.13
2022-11-19T04:47:00.922Z,13.30
2022-11-19T04:49:48.392Z,13.63
2022-11-19T04:52:40.587Z,13.33
2022-11-19T04:55:28.692Z,12.60
2022-11-19T04:58:16.628Z,13.27
2022-11-19T05:01:04.732Z,13.13
2022-11-19T05:03:54.059Z,12.97
2022-11-19T05:06:41.671Z,11.90
2022-11-19T05:40:15.269Z,15.33
2022-11-19T05:43:07.555Z,14.83
2022-11-19T05:45:55.481Z,13.97
2022-11-19T05:48:43.219Z,15.30
2022-11-19T05:51:31.029Z,15.03
2022-11-19T07:40:33.331Z,28.87
2022-11-19T07:43:20.151Z,26.47
2022-11-19T07:46:08.136Z,25.13
2022-11-19T07:48:56.804Z,25.33
2022-11-19T14:22:06.911Z,8.67
2022-11-19T14:25:14.955Z,8.33
2022-11-19T14:28:41.683Z,8.90
2022-11-19T14:31:29.558Z,9.13
2022-11-19T14:34:27.088Z,10.00
2022-11-19T14:37:19.991Z,8.70
2022-11-19T14:40:15.930Z,10.23
2022-11-19T14:43:42.886Z,9.43
2022-11-19T14:46:31.085Z,10.33
2022-11-19T14:49:33.071Z,11.10
2022-11-19T14:52:23.087Z,10.53
2022-11-19T14:55:23.660Z,10.23
2022-11-19T14:58:21.885Z,10.53
2022-11-19T15:01:18.027Z,13.10
2022-11-19T15:04:13.285Z,16.90
2022-11-19T15:07:02.343Z,13.33
2022-11-19T15:10:04.312Z,13.10
2022-11-19T15:13:07.416Z,11.20
2022-11-19T15:15:58.738Z,9.17
2022-11-19T15:19:25.319Z,10.73
2022-11-19T15:22:44.727Z,9.87
2022-11-19T15:25:46.296Z,8.50
2022-11-19T15:28:49.687Z,10.43
2022-11-19T15:31:57.121Z,10.83
2022-11-19T15:35:10.783Z,11.85
2022-11-19T15:38:06.376Z,13.37
2022-11-19T22:56:32.195Z,43.50
2022-11-19T22:59:20.729Z,43.33
2022-11-19T23:02:10.806Z,38.53
2022-11-19T23:05:00.053Z,37.20
2022-11-19T23:07:47.657Z,36.93
2022-11-19T23:10:35.802Z,36.57
2022-11-19T23:13:31.926Z,37.27
2022-11-19T23:16:20.372Z,36.17
2022-11-19T23:19:09.213Z,36.97
2022-11-19T23:21:58.346Z,34.47
2022-11-19T23:24:45.899Z,36.53
2022-11-19T23:27:33.779Z,35.87
2022-11-19T23:30:21.662Z,34.77
2022-11-19T23:33:09.500Z,33.90
2022-11-19T23:36:02.765Z,35.10
2022-11-19T23:38:52.385Z,36.40
2022-11-19T23:41:39.918Z,34.50
2022-11-19T23:44:27.444Z,31.77
2022-11-19T23:47:15.145Z,32.63
2022-11-19T23:50:03.477Z,31.20
2022-11-19T23:52:50.926Z,31.60
2022-11-19T23:55:40.492Z,31.43
2022-11-19T23:58:29.040Z,30.30
